Time;durP1;ratioP1;P1;durP2;ratioP2;P2;SDS_P1;SDS_P2;PMS_P1;PMS_P2;Temp;Humidity;BMP_temperature;BMP_pressure;BME280_temperature;BME280_humidity;BME280_pressure;Samples;Min_cycle;Max_cycle;Signal;HPM_P1;HPM_P2
2023/11/04 00:00:52;;;;;;;7.63;1.50;;;8.00;99.90;;;;;;4113394;28;20221;-77
2023/11/04 00:02:54;;;;;;;7.30;1.47;;;8.00;99.90;;;;;;4112768;28;20206;-76
2023/11/04 00:04:56;;;;;;;4.43;1.23;;;8.00;99.90;;;;;;4113890;28;20252;-75
2023/11/04 00:07:00;;;;;;;4.43;1.20;;;8.00;99.90;;;;;;4113234;28;20213;-76
2023/11/04 00:09:02;;;;;;;3.90;1.00;;;8.00;99.90;;;;;;4118083;28;20217;-75
2023/11/04 00:11:04;;;;;;;6.50;1.17;;;7.90;99.90;;;;;;4108035;28;20206;-78
2023/11/04 00:13:08;;;;;;;7.87;1.40;;;7.90;99.90;;;;;;4107884;28;20206;-77
2023/11/04 00:15:10;;;;;;;7.37;1.33;;;8.00;99.90;;;;;;4114122;28;20221;-77
2023/11/04 00:17:13;;;;;;;6.70;1.17;;;8.00;99.90;;;;;;4122253;28;20354;-77
2023/11/04 00:19:15;;;;;;;1.93;1.17;;;8.00;99.90;;;;;;4116691;28;20219;-77
2023/11/04 00:21:17;;;;;;;4.70;1.30;;;7.90;99.90;;;;;;4106665;28;20632;-78
2023/11/04 00:23:19;;;;;;;8.03;2.17;;;7.90;99.90;;;;;;4105286;28;20274;-77
2023/11/04 00:25:21;;;;;;;6.30;1.20;;;7.90;99.90;;;;;;4108005;28;20741;-77
2023/11/04 00:27:23;;;;;;;4.03;1.10;;;7.90;99.90;;;;;;4107984;28;20785;-77
2023/11/04 00:29:26;;;;;;;5.43;1.40;;;7.90;99.90;;;;;;4113780;28;20218;-77
2023/11/04 00:31:29;;;;;;;7.10;1.40;;;7.90;99.90;;;;;;4110689;28;20247;-77
2023/11/04 00:33:31;;;;;;;6.60;1.30;;;7.90;99.90;;;;;;4111341;28;20722;-77
2023/11/04 00:35:34;;;;;;;5.23;1.73;;;7.90;99.90;;;;;;4106730;28;20210;-77
2023/11/04 00:37:37;;;;;;;6.77;1.40;;;7.80;99.90;;;;;;4118542;28;20469;-76
2023/11/04 00:39:39;;;;;;;3.13;1.27;;;7.80;99.90;;;;;;4111911;28;20209;-75
2023/11/04 00:41:39;;;;;;;6.73;1.20;;;7.80;99.90;;;;;;4119376;28;20212;-76
2023/11/04 00:43:42;;;;;;;3.13;1.20;;;7.80;99.90;;;;;;4119282;28;20221;-76
2023/11/04 00:45:45;;;;;;;7.97;1.40;;;7.80;99.90;;;;;;4121617;28;20213;-76
2023/11/04 00:47:46;;;;;;;3.20;1.10;;;7.80;99.90;;;;;;4102131;28;20601;-76
2023/11/04 00:49:48;;;;;;;9.10;1.67;;;7.80;99.90;;;;;;4114743;28;20206;-75
2023/11/04 00:51:50;;;;;;;6.43;1.30;;;7.70;99.90;;;;;;4106688;28;20670;-77
2023/11/04 00:53:54;;;;;;;4.30;1.20;;;7.70;99.90;;;;;;4109853;28;20226;-77
2023/11/04 00:55:56;;;;;;;5.47;1.30;;;7.70;99.90;;;;;;4109290;28;20250;-76
2023/11/04 00:57:58;;;;;;;6.17;1.20;;;7.70;99.90;;;;;;4106413;28;20366;-77
2023/11/04 01:00:00;;;;;;;5.93;1.37;;;7.70;99.90;;;;;;4106850;28;20309;-77
2023/11/04 01:02:04;;;;;;;5.70;1.30;;;7.70;99.90;;;;;;4112732;28;20220;-77
2023/11/04 01:04:06;;;;;;;4.83;1.47;;;7.70;99.90;;;;;;4113556;28;20286;-77
2023/11/04 01:06:08;;;;;;;8.53;1.40;;;7.70;99.90;;;;;;4114340;28;20300;-77
2023/11/04 01:08:10;;;;;;;5.37;1.33;;;7.70;99.90;;;;;;4117477;28;20260;-77
2023/11/04 01:10:13;;;;;;;6.93;1.77;;;7.60;99.90;;;;;;4113857;28;20210;-77
2023/11/04 01:12:15;;;;;;;5.00;1.30;;;7.60;99.90;;;;;;4111079;28;20210;-77
2023/11/04 01:14:17;;;;;;;7.60;1.40;;;7.60;99.90;;;;;;4113712;28;20292;-76
2023/11/04 01:16:19;;;;;;;10.73;1.50;;;7.60;99.90;;;;;;4112870;28;20701;-77
2023/11/04 01:18:22;;;;;;;9.07;1.50;;;7.60;99.90;;;;;;4109445;28;20233;-77
2023/11/04 01:20:23;;;;;;;7.30;1.93;;;7.60;99.90;;;;;;4107290;28;20252;-77
2023/11/04 01:22:25;;;;;;;6.07;1.40;;;7.60;99.90;;;;;;4114755;28;20209;-77
2023/11/04 01:24:28;;;;;;;9.60;1.70;;;7.50;99.90;;;;;;4110334;28;20238;-77
2023/11/04 01:26:30;;;;;;;6.37;1.97;;;7.60;99.90;;;;;;4112094;28;20226;-77
2023/11/04 01:28:32;;;;;;;5.17;1.67;;;7.50;99.90;;;;;;4111168;28;20204;-77
2023/11/04 01:30:34;;;;;;;7.30;2.27;;;7.50;99.90;;;;;;4115212;28;20297;-77
2023/11/04 01:32:37;;;;;;;5.20;1.37;;;7.50;99.90;;;;;;4109800;28;20636;-77
2023/11/04 01:34:41;;;;;;;9.60;1.67;;;7.50;99.90;;;;;;4114208;28;20259;-76
2023/11/04 01:36:42;;;;;;;7.90;1.40;;;7.50;99.90;;;;;;4114323;28;20213;-76
2023/11/04 01:38:45;;;;;;;7.20;1.43;;;7.50;99.90;;;;;;4118795;28;20237;-76
2023/11/04 01:40:49;;;;;;;8.03;1.40;;;7.50;99.90;;;;;;4113272;28;20261;-77
2023/11/04 01:42:51;;;;;;;5.03;1.17;;;7.60;99.90;;;;;;4117024;28;20213;-76
2023/11/04 01:44:52;;;;;;;5.60;1.43;;;7.50;99.90;;;;;;4112488;28;20232;-75
2023/11/04 01:46:54;;;;;;;7.83;2.03;;;7.50;99.90;;;;;;4108854;28;20233;-76
2023/11/04 01:48:56;;;;;;;5.67;1.53;;;7.50;99.90;;;;;;4112307;28;20984;-76
2023/11/04 01:50:59;;;;;;;6.37;1.87;;;7.40;99.90;;;;;;4117060;28;20212;-76
2023/11/04 01:53:01;;;;;;;10.50;1.57;;;7.40;99.90;;;;;;4117220;28;20208;-76
2023/11/04 01:55:03;;;;;;;5.60;1.40;;;7.40;99.90;;;;;;4105593;28;20706;-76
2023/11/04 01:57:05;;;;;;;9.23;1.77;;;7.40;99.90;;;;;;4106160;28;20305;-76
2023/11/04 01:59:09;;;;;;;6.30;1.40;;;7.40;99.90;;;;;;4134250;28;20278;-76
2023/11/04 02:01:11;;;;;;;6.53;1.30;;;7.40;99.90;;;;;;4117477;28;20296;-76
2023/11/04 02:03:13;;;;;;;6.47;1.80;;;7.40;99.90;;;;;;4108721;28;20228;-75
2023/11/04 02:05:16;;;;;;;6.30;1.43;;;7.40;99.90;;;;;;4112137;28;20221;-76
2023/11/04 02:07:19;;;;;;;4.17;1.30;;;7.30;99.90;;;;;;4112336;28;20251;-75
2023/11/04 02:09:21;;;;;;;4.20;1.20;;;7.30;99.90;;;;;;4107900;28;20215;-75
2023/11/04 02:11:23;;;;;;;4.10;1.43;;;7.30;99.90;;;;;;4117009;28;20696;-75
2023/11/04 02:13:25;;;;;;;7.00;1.50;;;7.30;99.90;;;;;;4114327;28;20269;-75
2023/11/04 02:15:27;;;;;;;8.53;1.63;;;7.30;99.90;;;;;;4108271;28;20221;-75
2023/11/04 02:17:29;;;;;;;3.87;1.37;;;7.30;99.90;;;;;;4116849;28;20208;-75
2023/11/04 02:19:30;;;;;;;5.20;0.90;;;7.30;99.90;;;;;;4114032;28;20236;-76
2023/11/04 02:21:34;;;;;;;6.90;1.40;;;7.40;99.90;;;;;;4110950;28;20209;-76
2023/11/04 02:23:36;;;;;;;6.03;1.40;;;7.30;99.90;;;;;;4114480;28;20283;-76
2023/11/04 02:25:38;;;;;;;5.50;1.47;;;7.30;99.90;;;;;;4113991;28;20224;-76
2023/11/04 02:27:43;;;;;;;9.77;1.83;;;7.30;99.90;;;;;;4119866;28;20205;-76
2023/11/04 02:29:48;;;;;;;9.47;1.30;;;7.40;99.90;;;;;;4112013;28;20755;-76
2023/11/04 02:31:50;;;;;;;5.80;1.13;;;7.40;99.90;;;;;;4111829;28;20292;-76
2023/11/04 02:33:51;;;;;;;5.20;1.27;;;7.40;99.90;;;;;;4109010;28;20224;-76
2023/11/04 02:35:53;;;;;;;4.17;1.77;;;7.40;99.90;;;;;;4119509;28;20221;-76
2023/11/04 02:37:56;;;;;;;7.20;1.40;;;7.40;99.90;;;;;;4115334;28;20213;-75
2023/11/04 02:39:58;;;;;;;5.13;1.60;;;7.40;99.90;;;;;;4113728;28;20573;-75
2023/11/04 02:42:00;;;;;;;7.20;1.77;;;7.30;99.90;;;;;;4107779;28;20289;-76
2023/11/04 02:44:03;;;;;;;8.03;1.57;;;7.30;99.90;;;;;;4116566;28;20233;-76
2023/11/04 02:46:07;;;;;;;7.63;1.93;;;7.30;99.90;;;;;;4111458;28;20263;-75
2023/11/04 02:48:08;;;;;;;6.70;1.47;;;7.30;99.90;;;;;;4112195;28;20897;-76
2023/11/04 02:50:10;;;;;;;5.97;1.27;;;7.30;99.90;;;;;;4120295;28;20279;-75
2023/11/04 02:52:12;;;;;;;5.17;1.67;;;7.30;99.90;;;;;;4114709;28;20217;-75
2023/11/04 02:54:16;;;;;;;6.30;1.43;;;7.30;99.90;;;;;;4112309;28;20226;-75
2023/11/04 02:56:19;;;;;;;6.00;1.30;;;7.20;99.90;;;;;;4114009;28;20709;-75
2023/11/04 02:58:21;;;;;;;7.10;1.50;;;7.20;99.90;;;;;;4115015;28;20234;-75
2023/11/04 03:00:23;;;;;;;4.63;1.80;;;7.20;99.90;;;;;;4115258;28;20243;-76
2023/11/04 03:02:25;;;;;;;5.60;1.80;;;7.20;99.90;;;;;;4119099;28;20209;-75
2023/11/04 03:04:27;;;;;;;7.77;1.57;;;7.10;99.90;;;;;;4117067;28;20263;-75
2023/11/04 03:06:29;;;;;;;7.73;1.93;;;7.20;99.90;;;;;;4111288;28;20264;-76
2023/11/04 03:08:31;;;;;;;6.80;1.67;;;7.20;99.90;;;;;;4117847;28;20265;-75
2023/11/04 03:10:34;;;;;;;5.60;1.90;;;7.10;99.90;;;;;;4118401;28;20737;-75
2023/11/04 03:12:35;;;;;;;9.50;1.90;;;7.10;99.90;;;;;;4120787;28;20213;-76
2023/11/04 03:14:37;;;;;;;4.40;1.43;;;7.10;99.90;;;;;;4105909;28;20236;-75
2023/11/04 03:16:39;;;;;;;7.27;1.30;;;7.10;99.90;;;;;;4122435;28;20204;-75
2023/11/04 03:18:43;;;;;;;9.13;1.80;;;7.10;99.90;;;;;;4109962;28;20737;-76
2023/11/04 03:20:44;;;;;;;6.10;1.70;;;7.00;99.90;;;;;;4115392;28;20212;-76
2023/11/04 03:22:45;;;;;;;6.23;1.80;;;7.00;99.90;;;;;;4109405;28;20273;-75
2023/11/04 03:24:48;;;;;;;5.67;1.70;;;7.00;99.90;;;;;;4120930;28;20252;-77
2023/11/04 03:26:51;;;;;;;3.30;1.30;;;6.90;99.90;;;;;;4120712;28;20292;-76
2023/11/04 03:28:53;;;;;;;9.03;1.60;;;6.90;99.90;;;;;;4114588;28;20212;-75
2023/11/04 03:30:55;;;;;;;6.40;1.73;;;6.90;99.90;;;;;;4107483;28;20674;-75
2023/11/04 03:32:57;;;;;;;9.63;1.67;;;6.90;99.90;;;;;;4105120;28;20259;-76
2023/11/04 03:34:59;;;;;;;6.03;1.53;;;6.80;99.90;;;;;;4107007;28;20729;-76
2023/11/04 03:37:02;;;;;;;5.10;1.50;;;6.80;99.90;;;;;;4111539;28;20204;-76
2023/11/04 03:39:05;;;;;;;6.03;1.43;;;6.80;99.90;;;;;;4109060;28;20789;-75
2023/11/04 03:41:07;;;;;;;5.33;1.73;;;6.80;99.90;;;;;;4106867;28;20213;-76
2023/11/04 03:43:09;;;;;;;4.47;1.53;;;6.80;99.90;;;;;;4113553;28;21023;-75
2023/11/04 03:45:11;;;;;;;5.47;1.60;;;6.70;99.90;;;;;;4113171;28;20697;-75
2023/11/04 03:47:13;;;;;;;4.00;1.40;;;6.70;99.90;;;;;;4109741;28;20206;-76
2023/11/04 03:49:16;;;;;;;6.07;1.83;;;6.70;99.90;;;;;;4106232;28;20214;-75
2023/11/04 03:51:17;;;;;;;3.17;1.30;;;6.70;99.90;;;;;;4106826;28;20608;-76
2023/11/04 03:53:19;;;;;;;5.77;1.60;;;6.70;99.90;;;;;;4106537;28;20217;-75
2023/11/04 03:55:21;;;;;;;5.23;1.70;;;6.70;99.90;;;;;;4106821;28;20259;-76
2023/11/04 03:57:23;;;;;;;5.57;1.60;;;6.60;99.90;;;;;;4106938;28;20456;-75
2023/11/04 03:59:26;;;;;;;3.13;1.33;;;6.70;99.90;;;;;;4109226;28;20630;-75
2023/11/04 04:01:28;;;;;;;4.90;1.70;;;6.60;99.90;;;;;;4114265;28;20216;-76
2023/11/04 04:03:30;;;;;;;6.53;1.40;;;6.60;99.90;;;;;;4105458;28;20291;-76
2023/11/04 04:05:32;;;;;;;8.00;1.60;;;6.60;99.90;;;;;;4107218;28;20208;-76
2023/11/04 04:07:33;;;;;;;4.87;1.50;;;6.50;99.90;;;;;;4106900;28;20231;-75
2023/11/04 04:09:35;;;;;;;7.93;1.80;;;6.50;99.90;;;;;;4113498;28;20196;-75
2023/11/04 04:11:37;;;;;;;5.53;2.10;;;6.50;99.90;;;;;;4109871;28;20212;-76
2023/11/04 04:13:39;;;;;;;4.33;1.40;;;6.60;99.90;;;;;;4113424;28;20287;-76
2023/11/04 04:15:42;;;;;;;6.97;1.60;;;6.50;99.90;;;;;;4106883;28;20444;-76
2023/11/04 04:17:44;;;;;;;10.03;1.77;;;6.50;99.90;;;;;;4115869;28;20442;-76
2023/11/04 04:19:47;;;;;;;6.07;1.80;;;6.50;99.90;;;;;;4116357;28;20855;-75
2023/11/04 04:21:49;;;;;;;6.17;1.57;;;6.50;99.90;;;;;;4120061;28;20460;-75
2023/11/04 04:23:51;;;;;;;7.10;1.70;;;6.40;99.90;;;;;;4121000;28;20551;-75
2023/11/04 04:25:52;;;;;;;10.17;2.00;;;6.50;99.90;;;;;;4113065;28;20975;-77
2023/11/04 04:27:54;;;;;;;5.80;1.70;;;6.40;99.90;;;;;;4113194;28;20454;-77
2023/11/04 04:29:56;;;;;;;9.57;1.70;;;6.40;99.90;;;;;;4117133;28;20456;-76
2023/11/04 04:31:59;;;;;;;5.73;1.70;;;6.50;99.90;;;;;;4117541;28;21013;-76
2023/11/04 04:34:01;;;;;;;4.33;1.70;;;6.50;99.90;;;;;;4110308;28;21226;-76
2023/11/04 04:36:04;;;;;;;4.77;1.77;;;6.50;99.90;;;;;;4108831;28;21049;-77
2023/11/04 04:38:06;;;;;;;4.67;1.57;;;6.40;99.90;;;;;;4116876;28;20510;-75
2023/11/04 04:40:09;;;;;;;8.63;1.67;;;6.40;99.90;;;;;;4113629;28;20841;-76
2023/11/04 04:42:11;;;;;;;6.50;1.93;;;6.50;99.90;;;;;;4107916;28;20213;-76
2023/11/04 04:44:13;;;;;;;6.63;1.80;;;6.40;99.90;;;;;;4111291;28;20492;-76
2023/11/04 04:46:15;;;;;;;5.03;1.50;;;6.40;99.90;;;;;;4114314;28;20468;-77
2023/11/04 04:48:19;;;;;;;6.30;1.63;;;6.40;99.90;;;;;;4111749;28;20468;-76
2023/11/04 04:50:21;;;;;;;9.27;1.70;;;6.40;99.90;;;;;;4108719;28;20216;-76
2023/11/04 04:52:23;;;;;;;5.67;1.60;;;6.40;99.90;;;;;;4116243;28;20464;-76
2023/11/04 04:54:30;;;;;;;4.20;1.50;;;6.40;99.90;;;;;;4109981;28;20513;-76
2023/11/04 04:56:32;;;;;;;4.30;1.50;;;6.40;99.90;;;;;;4121350;28;21023;-76
2023/11/04 04:58:34;;;;;;;6.17;1.83;;;6.30;99.90;;;;;;4111375;28;20459;-76
2023/11/04 05:00:35;;;;;;;6.53;1.70;;;6.40;99.90;;;;;;4116725;28;20543;-77
2023/11/04 05:02:43;;;;;;;3.70;1.40;;;6.30;99.90;;;;;;4119898;28;20251;-75
2023/11/04 05:04:47;;;;;;;8.97;1.80;;;6.40;99.90;;;;;;4120652;28;20235;-76
2023/11/04 05:06:49;;;;;;;6.30;1.87;;;6.30;99.90;;;;;;4110031;28;21019;-76
2023/11/04 05:08:51;;;;;;;2.87;1.43;;;6.30;99.90;;;;;;4115645;28;20445;-75
2023/11/04 05:10:53;;;;;;;4.10;1.50;;;6.30;99.90;;;;;;4111416;28;20465;-76
2023/11/04 05:12:54;;;;;;;5.23;1.67;;;6.30;99.90;;;;;;4111002;28;20467;-77
2023/11/04 05:14:56;;;;;;;5.30;2.33;;;6.20;99.90;;;;;;4113699;28;20232;-75
2023/11/04 05:16:57;;;;;;;3.20;1.63;;;6.20;99.90;;;;;;4109853;28;20587;-77
2023/11/04 05:18:59;;;;;;;6.10;1.80;;;6.20;99.90;;;;;;4120760;28;20483;-76
2023/11/04 05:21:03;;;;;;;2.87;1.67;;;6.20;99.90;;;;;;4114393;28;20463;-76
2023/11/04 05:23:03;;;;;;;7.00;1.80;;;6.10;99.90;;;;;;4114297;28;20452;-77
2023/11/04 05:25:07;;;;;;;4.10;1.77;;;6.20;99.90;;;;;;4107999;28;20484;-77
2023/11/04 05:27:09;;;;;;;3.80;1.50;;;6.10;99.90;;;;;;4109090;28;20220;-76
2023/11/04 05:29:11;;;;;;;3.77;1.60;;;6.10;99.90;;;;;;4115005;28;20478;-77
2023/11/04 05:31:13;;;;;;;7.47;1.90;;;6.10;99.90;;;;;;4111563;28;20489;-77
2023/11/04 05:33:17;;;;;;;6.47;1.57;;;6.10;99.90;;;;;;4119705;28;20461;-77
2023/11/04 05:35:22;;;;;;;3.03;1.47;;;6.10;99.90;;;;;;4122860;28;20445;-76
2023/11/04 05:37:24;;;;;;;4.87;2.27;;;6.10;99.90;;;;;;4144838;28;20446;-75
2023/11/04 05:39:27;;;;;;;3.67;2.03;;;6.10;99.90;;;;;;4135091;28;20467;-77
2023/11/04 05:41:29;;;;;;;4.37;1.80;;;6.10;99.90;;;;;;4116667;28;20450;-77
2023/11/04 05:43:31;;;;;;;6.33;2.20;;;6.10;99.90;;;;;;4112471;28;20975;-77
2023/11/04 05:45:36;;;;;;;4.07;1.60;;;6.20;99.90;;;;;;4109169;28;20512;-77
2023/11/04 05:47:38;;;;;;;6.40;1.90;;;6.20;99.90;;;;;;4109006;28;20206;-76
2023/11/04 05:49:40;;;;;;;5.10;1.80;;;6.20;99.90;;;;;;4113277;28;20467;-77
2023/11/04 05:51:42;;;;;;;4.27;1.80;;;6.20;99.90;;;;;;4122363;28;20448;-76
2023/11/04 05:53:45;;;;;;;8.47;1.73;;;6.20;99.90;;;;;;4121449;28;20464;-76
2023/11/04 05:55:48;;;;;;;8.90;1.67;;;6.20;99.90;;;;;;4121113;28;20531;-76
2023/11/04 05:57:50;;;;;;;9.20;2.27;;;6.20;99.90;;;;;;4113511;28;20448;-77
2023/11/04 05:59:51;;;;;;;6.17;2.37;;;6.20;99.90;;;;;;4119784;28;20548;-77
2023/11/04 06:01:53;;;;;;;6.63;1.93;;;6.20;99.90;;;;;;4114368;28;21462;-77
2023/11/04 06:03:55;;;;;;;5.10;2.00;;;6.20;99.90;;;;;;4112320;28;20542;-77
2023/11/04 06:05:56;;;;;;;4.90;1.80;;;6.20;99.90;;;;;;4109823;28;20214;-77
2023/11/04 06:07:59;;;;;;;3.43;1.50;;;6.20;99.90;;;;;;4117931;28;20497;-76
2023/11/04 06:10:01;;;;;;;4.40;1.87;;;6.20;99.90;;;;;;4129028;28;20209;-77
2023/11/04 06:12:04;;;;;;;5.00;1.90;;;6.30;99.90;;;;;;4111922;28;20959;-76
2023/11/04 06:14:06;;;;;;;5.73;1.77;;;6.30;99.90;;;;;;4117119;28;21080;-77
2023/11/04 06:16:09;;;;;;;2.93;1.40;;;6.30;99.90;;;;;;4111316;28;20514;-77
2023/11/04 06:18:11;;;;;;;2.50;1.40;;;6.30;99.90;;;;;;4112057;28;20205;-77
2023/11/04 06:20:18;;;;;;;4.73;1.70;;;6.40;99.90;;;;;;4116606;28;20534;-77
2023/11/04 06:22:20;;;;;;;3.47;1.60;;;6.40;99.90;;;;;;4126975;28;20510;-76
2023/11/04 06:24:22;;;;;;;3.03;1.50;;;6.50;99.90;;;;;;4104434;28;20260;-76
2023/11/04 06:26:24;;;;;;;4.00;1.37;;;6.50;99.90;;;;;;4111552;28;20240;-77
2023/11/04 06:28:28;;;;;;;5.57;1.53;;;6.50;99.90;;;;;;4116057;28;20216;-77
2023/11/04 06:30:30;;;;;;;5.73;1.37;;;6.50;99.90;;;;;;4111013;28;20218;-77
2023/11/04 06:32:33;;;;;;;4.07;1.30;;;6.60;99.90;;;;;;4114481;28;20477;-77
2023/11/04 06:34:35;;;;;;;2.70;1.43;;;6.60;99.90;;;;;;4109439;28;20459;-77
2023/11/04 06:36:37;;;;;;;6.57;1.63;;;6.60;99.90;;;;;;4116624;28;20441;-77
2023/11/04 06:38:39;;;;;;;5.67;1.47;;;6.50;99.90;;;;;;4117538;28;20460;-77
2023/11/04 06:40:41;;;;;;;3.73;1.60;;;6.50;99.90;;;;;;4107280;28;20272;-77
2023/11/04 06:42:44;;;;;;;10.57;4.50;;;6.60;99.90;;;;;;4112831;28;20515;-77
2023/11/04 06:44:46;;;;;;;4.90;2.47;;;6.60;99.90;;;;;;4111084;28;20495;-77
2023/11/04 06:46:49;;;;;;;4.00;1.30;;;6.60;99.90;;;;;;4116204;28;20468;-77
2023/11/04 06:48:51;;;;;;;2.90;1.70;;;6.60;99.90;;;;;;4115420;28;20491;-77
2023/11/04 06:50:54;;;;;;;4.13;1.53;;;6.70;99.90;;;;;;4114443;28;20960;-77
2023/11/04 06:52:56;;;;;;;2.30;1.23;;;6.70;99.90;;;;;;4111112;28;20852;-76
2023/11/04 06:54:59;;;;;;;1.97;1.13;;;6.80;99.90;;;;;;4105722;28;20238;-77
2023/11/04 06:57:01;;;;;;;3.03;1.13;;;6.80;99.90;;;;;;4112197;28;20217;-75
2023/11/04 06:59:04;;;;;;;3.80;1.13;;;6.80;99.90;;;;;;4106119;28;20212;-75
2023/11/04 07:01:07;;;;;;;6.53;1.50;;;6.80;99.90;;;;;;4111702;28;20475;-75
2023/11/04 07:03:09;;;;;;;4.30;1.20;;;6.90;99.90;;;;;;4108635;28;20725;-75
2023/11/04 07:05:11;;;;;;;3.70;0.93;;;6.90;99.90;;;;;;4113602;28;20603;-75
2023/11/04 07:07:12;;;;;;;2.40;1.10;;;6.90;99.90;;;;;;4110457;28;20217;-75
2023/11/04 07:09:14;;;;;;;1.93;1.00;;;7.00;99.90;;;;;;4108938;28;20228;-75
2023/11/04 07:11:16;;;;;;;2.60;1.27;;;7.00;99.90;;;;;;4105997;28;20209;-75
2023/11/04 07:13:18;;;;;;;3.77;1.13;;;7.10;99.90;;;;;;4109059;28;20855;-76
2023/11/04 07:15:22;;;;;;;4.03;1.30;;;7.10;99.90;;;;;;4103034;28;20217;-75
2023/11/04 07:17:24;;;;;;;2.43;1.20;;;7.10;99.90;;;;;;4108950;28;20320;-75
2023/11/04 07:19:26;;;;;;;4.33;1.30;;;7.20;99.90;;;;;;4113038;28;20265;-75
2023/11/04 07:21:28;;;;;;;2.40;1.30;;;7.20;99.90;;;;;;4113452;28;20221;-75
2023/11/04 07:23:30;;;;;;;2.33;1.10;;;7.20;99.90;;;;;;4105363;28;20271;-75
2023/11/04 07:25:32;;;;;;;1.23;0.90;;;7.10;99.90;;;;;;4104633;28;20624;-75
2023/11/04 07:27:34;;;;;;;2.93;1.20;;;7.20;99.90;;;;;;4116775;28;20216;-75
2023/11/04 07:29:36;;;;;;;3.27;1.33;;;7.20;99.90;;;;;;4116451;28;20319;-75
2023/11/04 07:31:39;;;;;;;4.00;1.20;;;7.20;99.90;;;;;;4106976;28;20204;-75
2023/11/04 07:33:41;;;;;;;4.97;1.37;;;7.20;99.90;;;;;;4104150;28;20780;-75
2023/11/04 07:35:43;;;;;;;4.73;1.60;;;7.20;99.90;;;;;;4110739;28;20259;-75
2023/11/04 07:37:46;;;;;;;5.10;1.33;;;7.20;99.90;;;;;;4110727;28;20296;-75
2023/11/04 07:39:48;;;;;;;3.77;1.20;;;7.30;99.90;;;;;;4113294;28;20252;-75
2023/11/04 07:41:50;;;;;;;4.43;1.40;;;7.30;99.90;;;;;;4110838;28;20263;-75
2023/11/04 07:43:51;;;;;;;3.63;1.10;;;7.30;99.90;;;;;;4112788;28;20257;-75
2023/11/04 07:45:53;;;;;;;3.70;1.30;;;7.30;99.90;;;;;;4108014;28;20274;-75
2023/11/04 07:47:56;;;;;;;2.83;1.20;;;7.30;99.90;;;;;;4109256;28;20298;-75
2023/11/04 07:49:57;;;;;;;2.73;1.10;;;7.30;99.90;;;;;;4116548;28;20262;-75
2023/11/04 07:52:04;;;;;;;5.63;1.50;;;7.40;99.90;;;;;;4107347;28;20211;-75
2023/11/04 07:54:08;;;;;;;4.53;1.00;;;7.30;99.90;;;;;;4108678;28;20332;-75
2023/11/04 07:56:11;;;;;;;2.03;1.13;;;7.30;99.90;;;;;;4112851;28;20292;-75
2023/11/04 07:58:13;;;;;;;3.43;1.20;;;7.30;99.90;;;;;;4111364;28;20217;-75
2023/11/04 08:00:16;;;;;;;5.10;1.30;;;7.40;99.90;;;;;;4116417;28;20233;-75
2023/11/04 08:02:18;;;;;;;5.80;1.23;;;7.40;99.90;;;;;;4123670;28;20229;-76
2023/11/04 08:04:22;;;;;;;3.93;1.27;;;7.40;99.90;;;;;;4123591;28;20320;-76
2023/11/04 08:06:24;;;;;;;1.67;1.07;;;7.40;99.90;;;;;;4112424;28;20577;-74
2023/11/04 08:08:26;;;;;;;1.50;0.90;;;7.40;99.90;;;;;;4115596;28;20218;-75
2023/11/04 08:10:28;;;;;;;4.23;0.93;;;7.50;99.90;;;;;;4121787;28;20619;-75
2023/11/04 08:12:31;;;;;;;3.30;1.10;;;7.40;99.90;;;;;;4107224;28;20209;-75
2023/11/04 08:14:33;;;;;;;2.40;1.20;;;7.50;99.90;;;;;;4108331;28;20237;-76
2023/11/04 08:16:34;;;;;;;2.17;1.00;;;7.50;99.90;;;;;;4112133;28;20252;-76
2023/11/04 08:18:36;;;;;;;1.97;1.00;;;7.50;99.90;;;;;;4103840;28;20256;-76
2023/11/04 08:20:40;;;;;;;3.37;1.20;;;7.50;99.90;;;;;;4105935;28;20273;-77
2023/11/04 08:22:46;;;;;;;1.87;0.90;;;7.50;99.90;;;;;;4108646;28;20304;-78
2023/11/04 08:24:47;;;;;;;3.70;1.40;;;7.50;99.90;;;;;;4104946;28;20237;-76
2023/11/04 08:26:49;;;;;;;5.07;0.90;;;7.60;99.90;;;;;;4106554;28;20211;-77
2023/11/04 08:28:51;;;;;;;2.13;1.00;;;7.60;99.90;;;;;;4108118;28;20605;-76
2023/11/04 08:30:53;;;;;;;3.10;1.30;;;7.60;99.90;;;;;;4115828;28;20201;-74
2023/11/04 08:32:55;;;;;;;3.60;1.13;;;7.60;99.90;;;;;;4108549;28;20670;-76
2023/11/04 08:34:58;;;;;;;3.17;1.00;;;7.60;99.90;;;;;;4117756;28;20299;-75
2023/11/04 08:37:02;;;;;;;4.20;1.20;;;7.60;99.90;;;;;;4112849;28;20210;-77
2023/11/04 08:39:04;;;;;;;3.20;1.20;;;7.70;99.90;;;;;;4110174;28;20298;-78
2023/11/04 08:41:06;;;;;;;2.70;1.07;;;7.70;99.90;;;;;;4114502;28;20225;-76
2023/11/04 08:43:08;;;;;;;6.63;1.43;;;7.70;99.90;;;;;;4124771;28;20209;-77
2023/11/04 08:45:13;;;;;;;3.67;1.40;;;7.70;99.90;;;;;;4107024;28;20268;-79
2023/11/04 08:47:14;;;;;;;2.50;1.20;;;7.70;99.90;;;;;;4107775;28;20293;-78
2023/11/04 08:49:16;;;;;;;3.10;0.93;;;7.80;99.90;;;;;;4108725;28;20653;-78
2023/11/04 08:51:18;;;;;;;3.17;0.90;;;7.80;99.90;;;;;;4110733;28;20217;-78
2023/11/04 08:53:22;;;;;;;4.77;1.10;;;7.80;99.90;;;;;;4108660;28;20227;-78
2023/11/04 08:55:24;;;;;;;3.07;1.17;;;7.80;99.90;;;;;;4111697;28;20233;-79
2023/11/04 08:57:27;;;;;;;2.57;1.30;;;8.10;99.90;;;;;;4125179;28;20292;-77
2023/11/04 08:59:29;;;;;;;5.43;1.20;;;7.90;99.90;;;;;;4106846;28;20256;-80
2023/11/04 09:01:31;;;;;;;2.07;1.10;;;8.00;99.90;;;;;;4107675;28;20222;-77
2023/11/04 09:03:33;;;;;;;5.17;1.40;;;8.00;99.90;;;;;;4106528;28;20237;-76
2023/11/04 09:05:35;;;;;;;1.63;0.90;;;8.00;99.90;;;;;;4111201;28;20210;-78
2023/11/04 09:07:37;;;;;;;2.23;1.20;;;8.10;99.90;;;;;;4119187;28;20232;-77
2023/11/04 09:09:41;;;;;;;6.73;1.10;;;8.10;99.90;;;;;;4114342;28;20743;-81
2023/11/04 09:11:43;;;;;;;1.37;0.80;;;8.20;99.90;;;;;;4106927;28;20210;-75
2023/11/04 09:13:45;;;;;;;1.30;0.87;;;8.20;99.90;;;;;;4108613;28;20240;-76
2023/11/04 09:15:47;;;;;;;1.20;0.80;;;8.20;99.90;;;;;;4117178;28;20261;-82
2023/11/04 09:17:51;;;;;;;2.47;1.00;;;8.30;99.90;;;;;;4115010;28;20267;-78
2023/11/04 09:19:52;;;;;;;2.07;1.00;;;8.30;99.90;;;;;;4110553;28;20214;-85
2023/11/04 09:21:54;;;;;;;2.27;1.13;;;8.30;99.90;;;;;;4115085;28;20231;-83
2023/11/04 09:23:59;;;;;;;2.27;0.97;;;8.30;99.90;;;;;;4107593;28;20242;-84
2023/11/04 09:26:03;;;;;;;2.47;1.00;;;8.40;99.90;;;;;;4106690;28;20722;-83
2023/11/04 09:28:04;;;;;;;2.27;0.90;;;8.40;99.90;;;;;;4109150;28;20264;-83
2023/11/04 09:30:10;;;;;;;2.00;0.80;;;8.40;99.90;;;;;;4108163;28;20208;-82
2023/11/04 09:32:13;;;;;;;2.73;0.97;;;8.50;99.90;;;;;;4114086;28;20556;-83
2023/11/04 09:34:14;;;;;;;1.90;0.87;;;8.50;99.90;;;;;;4109557;28;20656;-73
2023/11/04 09:36:18;;;;;;;1.63;0.80;;;8.50;99.90;;;;;;4109563;28;20198;-75
2023/11/04 09:38:20;;;;;;;1.43;0.70;;;8.60;99.90;;;;;;4107845;28;20198;-74
2023/11/04 09:40:21;;;;;;;1.53;0.70;;;8.70;99.90;;;;;;4105656;28;20628;-75
2023/11/04 09:42:28;;;;;;;3.23;0.70;;;8.70;99.90;;;;;;4107972;28;20589;-76
2023/11/04 09:44:30;;;;;;;1.77;0.80;;;8.80;99.90;;;;;;4113323;28;20814;-74
2023/11/04 09:46:33;;;;;;;2.10;0.77;;;8.80;99.90;;;;;;4110525;28;20211;-75
2023/11/04 09:48:37;;;;;;;1.37;0.83;;;8.80;99.90;;;;;;4114357;28;20703;-74
2023/11/04 09:50:39;;;;;;;1.20;0.90;;;8.80;99.90;;;;;;4110121;28;20203;-82
2023/11/04 09:52:47;;;;;;;2.07;0.80;;;8.90;99.90;;;;;;4113395;28;20664;-77
2023/11/04 09:54:50;;;;;;;2.00;0.70;;;9.00;99.90;;;;;;4115210;28;20859;-77
2023/11/04 09:56:52;;;;;;;1.83;0.67;;;9.00;99.90;;;;;;4107451;28;20222;-76
2023/11/04 09:58:56;;;;;;;2.10;0.83;;;9.00;99.90;;;;;;4110877;28;20865;-76
2023/11/04 10:00:58;;;;;;;1.50;0.83;;;9.10;99.90;;;;;;4109882;28;20299;-77
2023/11/04 10:03:00;;;;;;;3.37;0.70;;;9.20;99.90;;;;;;4108801;28;20826;-76
2023/11/04 10:05:02;;;;;;;1.43;0.67;;;9.20;99.90;;;;;;4104860;28;20313;-77
2023/11/04 10:07:04;;;;;;;2.03;0.90;;;9.20;99.90;;;;;;4111205;28;21644;-76
2023/11/04 10:09:06;;;;;;;2.20;0.80;;;9.30;99.90;;;;;;4110277;28;20219;-76
2023/11/04 10:11:07;;;;;;;0.87;0.70;;;9.30;99.90;;;;;;4113282;28;20222;-76
2023/11/04 10:13:09;;;;;;;0.90;0.60;;;9.40;99.90;;;;;;4118686;28;20207;-76
2023/11/04 10:15:13;;;;;;;1.70;0.77;;;9.40;99.90;;;;;;4104763;28;20236;-76
2023/11/04 10:17:15;;;;;;;2.77;0.73;;;9.50;99.90;;;;;;4121600;28;20741;-77
2023/11/04 10:19:17;;;;;;;3.37;0.80;;;9.60;99.90;;;;;;4113944;28;20257;-76
2023/11/04 10:21:19;;;;;;;1.60;0.60;;;9.60;99.90;;;;;;4109317;28;20264;-77
2023/11/04 10:23:22;;;;;;;0.87;0.70;;;9.70;99.90;;;;;;4108333;28;20217;-77
2023/11/04 10:25:23;;;;;;;0.97;0.60;;;9.80;99.90;;;;;;4112347;28;20303;-77
2023/11/04 10:27:25;;;;;;;1.73;0.60;;;9.80;99.90;;;;;;4114497;28;20273;-76
2023/11/04 10:29:27;;;;;;;1.87;0.57;;;9.90;99.90;;;;;;4109260;28;20278;-77
2023/11/04 10:31:32;;;;;;;1.80;0.90;;;10.00;99.90;;;;;;4104599;28;20751;-77
2023/11/04 10:33:35;;;;;;;3.30;0.73;;;10.10;99.90;;;;;;4107746;28;20704;-77
2023/11/04 10:35:41;;;;;;;1.53;0.60;;;10.10;99.90;;;;;;4105569;28;20583;-77
2023/11/04 10:37:47;;;;;;;1.53;0.60;;;10.20;99.90;;;;;;4103694;28;20269;-77
2023/11/04 10:39:55;;;;;;;1.50;0.60;;;10.30;99.90;;;;;;4114659;28;20235;-77
2023/11/04 10:42:05;;;;;;;1.83;0.50;;;10.30;99.90;;;;;;4110739;28;20792;-77
2023/11/04 10:44:15;;;;;;;1.23;0.50;;;10.50;99.90;;;;;;4113060;28;20236;-77
2023/11/04 10:46:24;;;;;;;1.90;0.47;;;10.50;99.90;;;;;;4107664;28;20236;-77